createdAt,value
2023-05-10T00:02:24.168Z,21.31
2023-05-10T00:07:29.457Z,20.75
2023-05-10T00:12:32.849Z,21.06
2023-05-10T00:17:36.329Z,21.23
2023-05-10T00:22:41.279Z,21.32
2023-05-10T00:27:44.564Z,20.97
2023-05-10T00:32:49.088Z,20.79
2023-05-10T00:37:54.022Z,20.98
2023-05-10T00:42:57.866Z,20.81
2023-05-10T00:48:01.868Z,20.93
2023-05-10T00:53:06.833Z,21.04
2023-05-10T00:58:10.147Z,20.91
2023-05-10T01:03:13.942Z,20.84
2023-05-10T01:08:19.232Z,20.65
2023-05-10T01:13:31.554Z,20.36
2023-05-10T01:18:36.269Z,20.51
2023-05-10T01:24:11.786Z,20.55
2023-05-10T01:29:32.393Z,20.65
2023-05-10T01:34:44.990Z,20.52
2023-05-10T01:39:53.690Z,20.24
2023-05-10T01:45:00.778Z,19.83
2023-05-10T01:50:07.227Z,19.89
2023-05-10T01:55:13.704Z,19.95
2023-05-10T02:00:18.160Z,19.78
2023-05-10T02:05:23.870Z,19.80
2023-05-10T02:10:28.078Z,19.77
2023-05-10T02:15:32.080Z,19.82
2023-05-10T02:20:37.061Z,19.72
2023-05-10T02:25:40.773Z,19.67
2023-05-10T02:30:44.531Z,19.54
2023-05-10T02:35:49.995Z,19.76
2023-05-10T02:40:53.531Z,19.70
2023-05-10T02:45:57.008Z,19.72
2023-05-10T02:51:06.812Z,19.36
2023-05-10T02:56:15.617Z,19.64
2023-05-10T03:01:19.038Z,19.88
2023-05-10T03:06:23.834Z,19.85
2023-05-10T03:11:34.806Z,19.88
2023-05-10T03:16:46.262Z,19.92
2023-05-10T03:21:53.167Z,19.69
2023-05-10T03:26:58.482Z,19.92
2023-05-10T03:32:02.462Z,19.74
2023-05-10T03:37:10.061Z,19.74
2023-05-10T03:42:14.033Z,19.60
2023-05-10T03:47:17.476Z,19.72
2023-05-10T03:52:22.279Z,19.65
2023-05-10T03:57:26.455Z,19.84
2023-05-10T04:02:30.979Z,19.46
2023-05-10T04:07:35.971Z,19.45
2023-05-10T04:12:39.610Z,19.58
2023-05-10T04:17:43.178Z,19.68
2023-05-10T04:22:47.930Z,19.80
2023-05-10T04:27:51.262Z,19.79
2023-05-10T04:32:54.693Z,19.59
2023-05-10T04:37:59.597Z,19.50
2023-05-10T04:43:03.000Z,19.60
2023-05-10T04:48:07.249Z,19.81
2023-05-10T04:53:12.514Z,20.26
2023-05-10T04:58:17.226Z,19.58
2023-05-10T05:03:20.773Z,20.02
2023-05-10T05:08:25.749Z,20.07
2023-05-10T05:13:29.417Z,20.16
2023-05-10T05:18:33.127Z,20.18
2023-05-10T05:23:37.798Z,20.28
2023-05-10T05:28:41.178Z,20.29
2023-05-10T05:33:44.907Z,20.24
2023-05-10T05:38:49.897Z,20.37
2023-05-10T05:43:53.756Z,20.44
2023-05-10T05:48:57.237Z,20.43
2023-05-10T05:54:01.870Z,20.56
2023-05-10T05:59:05.212Z,20.37
2023-05-10T06:04:09.030Z,20.33
2023-05-10T06:09:14.074Z,20.31
2023-05-10T06:14:17.598Z,20.50
2023-05-10T06:19:21.359Z,20.68
2023-05-10T06:24:26.268Z,20.57
2023-05-10T06:29:29.718Z,20.68
2023-05-10T06:34:33.690Z,20.71
2023-05-10T06:39:38.934Z,20.63
2023-05-10T06:44:42.702Z,20.76
2023-05-10T06:49:46.059Z,20.98
2023-05-10T06:54:51.009Z,20.83
2023-05-10T06:59:54.428Z,20.91
2023-05-10T07:05:01.670Z,20.90
2023-05-10T07:10:09.937Z,20.88
2023-05-10T07:15:13.427Z,21.12
2023-05-10T07:20:17.016Z,21.10
2023-05-10T07:25:22.000Z,20.86
2023-05-10T07:30:25.682Z,21.15
2023-05-10T07:35:29.289Z,21.06
2023-05-10T07:40:34.254Z,21.21
2023-05-10T07:45:37.745Z,21.05
2023-05-10T07:50:41.363Z,20.76
2023-05-10T07:55:46.092Z,20.83
2023-05-10T08:00:50.411Z,20.94
2023-05-10T08:05:53.781Z,21.18
2023-05-10T08:10:58.671Z,21.12
2023-05-10T08:16:02.474Z,21.16
2023-05-10T08:21:06.162Z,21.32
2023-05-10T08:26:10.865Z,21.28
2023-05-10T08:31:14.578Z,20.76
2023-05-10T09:01:08.892Z,22.41
2023-05-10T09:06:14.019Z,22.35
2023-05-10T09:11:18.234Z,22.54
2023-05-10T09:16:23.213Z,22.66
2023-05-10T09:21:27.081Z,23.04
2023-05-10T09:26:30.407Z,23.18
2023-05-10T09:31:49.106Z,23.34
2023-05-10T09:36:54.478Z,23.07
2023-05-10T09:42:01.757Z,23.47
2023-05-10T09:47:06.545Z,23.63
2023-05-10T09:52:10.449Z,23.45
2023-05-10T09:57:22.293Z,23.40
2023-05-10T10:02:31.943Z,24.22
2023-05-10T10:07:35.701Z,24.13
2023-05-10T10:12:39.319Z,24.16
2023-05-10T10:17:45.625Z,24.47
2023-05-10T10:22:49.248Z,24.46
2023-05-10T10:28:04.890Z,24.90
2023-05-10T10:33:33.206Z,24.65
2023-05-10T10:39:00.300Z,24.58
2023-05-10T10:44:26.184Z,24.39
2023-05-10T10:49:32.971Z,25.18
2023-05-10T10:54:37.363Z,25.40
2023-05-10T10:59:45.027Z,25.26
2023-05-10T11:04:50.264Z,25.89
2023-05-10T11:09:53.832Z,26.42
2023-05-10T11:14:59.816Z,26.51
2023-05-10T11:20:11.625Z,26.61
2023-05-10T11:25:15.021Z,26.93
2023-05-10T11:30:18.775Z,27.07
2023-05-10T11:35:23.710Z,27.04
2023-05-10T11:40:27.389Z,27.22
2023-05-10T11:45:32.468Z,26.68
2023-05-10T11:50:37.424Z,27.48
2023-05-10T11:55:40.805Z,27.84
2023-05-10T12:00:44.502Z,27.01
2023-05-10T12:05:49.603Z,28.56
2023-05-10T12:10:53.044Z,29.11
2023-05-10T12:15:59.867Z,29.27
2023-05-10T12:21:06.756Z,28.75
2023-05-10T12:26:12.690Z,28.32
2023-05-10T12:31:16.305Z,28.85
2023-05-10T12:36:26.323Z,28.58
2023-05-10T12:41:29.709Z,28.79
2023-05-10T12:46:33.426Z,29.33
2023-05-10T12:51:38.398Z,29.21
2023-05-10T12:56:43.838Z,29.29
2023-05-10T13:01:47.500Z,29.55
2023-05-10T13:06:52.375Z,28.91
2023-05-10T13:11:56.283Z,29.14
2023-05-10T13:17:00.170Z,28.50
2023-05-10T13:22:05.432Z,29.19
2023-05-10T13:27:09.051Z,29.14
2023-05-10T13:32:12.764Z,28.67
2023-05-10T13:37:17.922Z,28.70
2023-05-10T13:42:21.442Z,28.86
2023-05-10T13:47:24.885Z,28.92
2023-05-10T13:52:29.770Z,29.03
2023-05-10T13:57:35.425Z,29.01
2023-05-10T14:02:39.139Z,28.97
2023-05-10T14:07:44.156Z,28.79
2023-05-10T14:12:47.701Z,28.89
2023-05-10T14:17:51.291Z,28.31
2023-05-10T14:22:56.102Z,29.08
2023-05-10T14:27:59.471Z,29.36
2023-05-10T14:33:03.446Z,29.32
2023-05-10T14:38:08.293Z,29.27
2023-05-10T14:43:11.706Z,29.04
2023-05-10T14:48:18.309Z,28.56
2023-05-10T14:53:23.017Z,27.57
2023-05-10T14:58:26.428Z,26.80
2023-05-10T15:03:30.074Z,26.75
2023-05-10T15:08:35.501Z,26.51
2023-05-10T15:13:39.187Z,26.60
2023-05-10T15:18:42.642Z,26.80
2023-05-10T15:23:47.448Z,26.53
2023-05-10T15:28:51.301Z,26.53
2023-05-10T15:33:59.652Z,25.86
2023-05-10T15:39:04.775Z,25.42
2023-05-10T15:44:08.170Z,25.65
2023-05-10T15:49:11.551Z,25.84
2023-05-10T15:54:16.414Z,25.85
2023-05-10T15:59:19.795Z,25.53
2023-05-10T16:04:24.031Z,25.64
2023-05-10T16:09:28.785Z,25.03
2023-05-10T16:14:32.371Z,25.07
2023-05-10T16:19:35.842Z,24.48
2023-05-10T16:24:40.989Z,24.09
2023-05-10T16:29:44.508Z,23.97
2023-05-10T16:34:47.969Z,23.68
2023-05-10T16:39:52.921Z,24.38
2023-05-10T16:44:56.587Z,24.52
2023-05-10T16:50:00.006Z,24.30
2023-05-10T16:55:05.477Z,24.12
2023-05-10T17:00:11.843Z,24.16
2023-05-10T17:05:15.695Z,23.85
2023-05-10T17:10:20.736Z,24.10
2023-05-10T17:15:24.388Z,24.19
2023-05-10T17:20:28.020Z,24.42
2023-05-10T17:25:32.931Z,24.49
2023-05-10T17:30:36.310Z,24.52
2023-05-10T17:35:39.876Z,24.62
2023-05-10T17:40:44.884Z,24.50
2023-05-10T17:45:49.328Z,24.53
2023-05-10T17:50:52.744Z,24.62
2023-05-10T17:55:59.147Z,24.64
2023-05-10T18:01:02.961Z,24.53
2023-05-10T18:06:07.369Z,24.48
2023-05-10T18:11:12.278Z,24.63
2023-05-10T18:16:18.582Z,24.45
2023-05-10T18:21:22.038Z,24.43
2023-05-10T18:26:27.709Z,24.48
2023-05-10T18:31:33.428Z,24.43
2023-05-10T18:36:37.104Z,24.15
2023-05-10T18:41:41.907Z,24.00
2023-05-10T18:46:45.591Z,24.04
2023-05-10T18:51:49.356Z,24.05
2023-05-10T18:56:54.120Z,24.11
2023-05-10T19:01:57.841Z,24.12
2023-05-10T19:07:02.281Z,24.01
2023-05-10T19:12:07.583Z,23.98
2023-05-10T19:17:13.173Z,23.91
2023-05-10T19:22:16.497Z,23.78
2023-05-10T19:27:21.688Z,23.89
2023-05-10T19:32:25.263Z,23.71
2023-05-10T19:37:28.753Z,23.78
2023-05-10T19:42:33.544Z,23.64
2023-05-10T19:47:37.214Z,23.62
2023-05-10T19:52:40.837Z,23.43
2023-05-10T19:57:46.102Z,23.56
2023-05-10T20:02:50.370Z,23.35
2023-05-10T20:07:54.504Z,23.42
2023-05-10T20:13:00.355Z,23.37
2023-05-10T20:18:04.480Z,23.29
2023-05-10T20:23:07.954Z,23.48
2023-05-10T20:28:13.337Z,23.42
2023-05-10T20:33:16.898Z,23.31
2023-05-10T20:38:20.996Z,23.54
2023-05-10T20:43:25.948Z,23.34
2023-05-10T20:48:29.513Z,23.49
2023-05-10T20:53:33.731Z,23.51
2023-05-10T20:58:38.524Z,23.51
2023-05-10T21:03:41.956Z,23.45
2023-05-10T21:08:45.344Z,23.19
2023-05-10T21:13:50.386Z,23.14
2023-05-10T21:18:53.875Z,23.28
2023-05-10T21:23:57.484Z,23.27
2023-05-10T21:29:02.572Z,23.32
2023-05-10T21:34:06.589Z,23.28
2023-05-10T21:39:10.210Z,23.30
2023-05-10T21:44:15.036Z,23.33
2023-05-10T21:49:19.082Z,23.25
2023-05-10T21:54:22.425Z,23.31
2023-05-10T21:59:27.185Z,23.26
2023-05-10T22:04:30.602Z,23.33
2023-05-10T22:09:34.006Z,23.20
2023-05-10T22:14:38.956Z,23.22
2023-05-10T22:19:42.500Z,23.18
2023-05-10T22:24:45.925Z,23.08
2023-05-10T22:29:50.635Z,23.10
2023-05-10T22:34:54.015Z,22.90
2023-05-10T22:39:57.415Z,22.80
2023-05-10T22:45:02.275Z,22.97
2023-05-10T22:50:06.957Z,22.74
2023-05-10T22:55:11.032Z,22.76
2023-05-10T23:00:17.744Z,22.81
2023-05-10T23:05:21.236Z,22.65
2023-05-10T23:10:25.238Z,22.69
2023-05-10T23:15:30.273Z,22.26
2023-05-10T23:20:33.935Z,22.71
2023-05-10T23:25:37.609Z,22.36
2023-05-10T23:30:42.584Z,22.67
2023-05-10T23:35:46.140Z,22.74
2023-05-10T23:40:50.696Z,22.87
2023-05-10T23:45:56.530Z,22.89
2023-05-10T23:50:59.929Z,22.82
2023-05-10T23:56:03.284Z,22.79
